sensor_id;sensor_type;location;lat;lon;timestamp;P1;durP1;ratioP1;P2;durP2;ratioP2
32242;SDS011;18731;42.830;24.390;2023-08-31T03:00:41;15.60;;;11.52;;
32242;SDS011;18731;42.830;24.390;2023-08-31T03:03:08;15.77;;;11.20;;
32242;SDS011;18731;42.830;24.390;2023-08-31T03:05:33;18.65;;;11.82;;
32242;SDS011;18731;42.830;24.390;2023-08-31T03:07:59;18.27;;;11.75;;
32242;SDS011;18731;42.830;24.390;2023-08-31T03:10:25;13.93;;;11.02;;
32242;SDS011;18731;42.830;24.390;2023-08-31T03:12:50;17.10;;;10.38;;
32242;SDS011;18731;42.830;24.390;2023-08-31T03:15:16;14.45;;;10.65;;
32242;SDS011;18731;42.830;24.390;2023-08-31T03:17:41;13.30;;;11.02;;
32242;SDS011;18731;42.830;24.390;2023-08-31T03:20:08;15.70;;;11.82;;
32242;SDS011;18731;42.830;24.390;2023-08-31T03:22:35;16.38;;;11.93;;
32242;SDS011;18731;42.830;24.390;2023-08-31T03:25:00;18.15;;;12.00;;
32242;SDS011;18731;42.830;24.390;2023-08-31T03:27:26;17.33;;;12.02;;
32242;SDS011;18731;42.830;24.390;2023-08-31T03:29:51;16.73;;;12.07;;
32242;SDS011;18731;42.830;24.390;2023-08-31T03:32:17;14.23;;;11.20;;
32242;SDS011;18731;42.830;24.390;2023-08-31T03:34:43;16.33;;;11.63;;
32242;SDS011;18731;42.830;24.390;2023-08-31T03:37:10;14.63;;;11.75;;
32242;SDS011;18731;42.830;24.390;2023-08-31T03:39:35;15.68;;;11.38;;
32242;SDS011;18731;42.830;24.390;2023-08-31T03:42:02;19.33;;;12.05;;
32242;SDS011;18731;42.830;24.390;2023-08-31T03:44:27;15.82;;;12.07;;
32242;SDS011;18731;42.830;24.390;2023-08-31T03:46:53;17.80;;;12.00;;
32242;SDS011;18731;42.830;24.390;2023-08-31T03:49:19;13.52;;;11.32;;
32242;SDS011;18731;42.830;24.390;2023-08-31T03:51:45;16.98;;;11.52;;
32242;SDS011;18731;42.830;24.390;2023-08-31T03:54:10;14.55;;;11.15;;
32242;SDS011;18731;42.830;24.390;2023-08-31T03:56:38;17.20;;;12.65;;
32242;SDS011;18731;42.830;24.390;2023-08-31T03:59:03;14.55;;;11.55;;
32242;SDS011;18731;42.830;24.390;2023-08-31T04:01:30;18.92;;;11.98;;
32242;SDS011;18731;42.830;24.390;2023-08-31T04:03:55;17.60;;;11.95;;
32242;SDS011;18731;42.830;24.390;2023-08-31T04:06:21;13.05;;;10.60;;
32242;SDS011;18731;42.830;24.390;2023-08-31T04:08:47;16.30;;;12.00;;
32242;SDS011;18731;42.830;24.390;2023-08-31T04:11:12;14.85;;;11.82;;
32242;SDS011;18731;42.830;24.390;2023-08-31T04:13:38;13.57;;;11.52;;
32242;SDS011;18731;42.830;24.390;2023-08-31T04:16:03;16.83;;;12.23;;
32242;SDS011;18731;42.830;24.390;2023-08-31T04:18:29;16.20;;;11.18;;
32242;SDS011;18731;42.830;24.390;2023-08-31T04:20:55;18.35;;;12.55;;
32242;SDS011;18731;42.830;24.390;2023-08-31T04:23:20;17.08;;;11.88;;
32242;SDS011;18731;42.830;24.390;2023-08-31T04:25:46;16.58;;;12.32;;
32242;SDS011;18731;42.830;24.390;2023-08-31T04:28:13;16.73;;;12.05;;
32242;SDS011;18731;42.830;24.390;2023-08-31T04:30:39;17.42;;;11.57;;
32242;SDS011;18731;42.830;24.390;2023-08-31T04:33:06;14.52;;;11.65;;
32242;SDS011;18731;42.830;24.390;2023-08-31T04:35:32;13.32;;;10.88;;
32242;SDS011;18731;42.830;24.390;2023-08-31T04:37:58;25.33;;;11.00;;
32242;SDS011;18731;42.830;24.390;2023-08-31T04:40:23;13.23;;;11.73;;
32242;SDS011;18731;42.830;24.390;2023-08-31T04:42:50;19.38;;;12.00;;
32242;SDS011;18731;42.830;24.390;2023-08-31T04:45:16;17.45;;;12.43;;
32242;SDS011;18731;42.830;24.390;2023-08-31T04:47:41;18.77;;;10.77;;
32242;SDS011;18731;42.830;24.390;2023-08-31T04:50:08;15.68;;;11.23;;
32242;SDS011;18731;42.830;24.390;2023-08-31T04:52:33;15.05;;;11.40;;
32242;SDS011;18731;42.830;24.390;2023-08-31T04:55:03;18.05;;;11.68;;
32242;SDS011;18731;42.830;24.390;2023-08-31T04:57:32;17.23;;;10.70;;
32242;SDS011;18731;42.830;24.390;2023-08-31T04:59:58;15.10;;;11.40;;
32242;SDS011;18731;42.830;24.390;2023-08-31T05:02:24;14.32;;;10.88;;
32242;SDS011;18731;42.830;24.390;2023-08-31T05:04:50;14.30;;;11.40;;
32242;SDS011;18731;42.830;24.390;2023-08-31T05:07:16;17.70;;;10.95;;
32242;SDS011;18731;42.830;24.390;2023-08-31T05:09:41;13.80;;;10.98;;
32242;SDS011;18731;42.830;24.390;2023-08-31T05:12:07;19.02;;;11.00;;
32242;SDS011;18731;42.830;24.390;2023-08-31T05:14:33;15.65;;;11.23;;
32242;SDS011;18731;42.830;24.390;2023-08-31T05:17:02;18.48;;;11.63;;
32242;SDS011;18731;42.830;24.390;2023-08-31T05:19:29;17.15;;;10.15;;
32242;SDS011;18731;42.830;24.390;2023-08-31T05:21:55;12.70;;;10.65;;
32242;SDS011;18731;42.830;24.390;2023-08-31T05:24:21;18.98;;;10.68;;
32242;SDS011;18731;42.830;24.390;2023-08-31T05:26:47;17.50;;;10.48;;
32242;SDS011;18731;42.830;24.390;2023-08-31T05:29:12;13.68;;;10.30;;
32242;SDS011;18731;42.830;24.390;2023-08-31T05:31:38;16.45;;;10.32;;
32242;SDS011;18731;42.830;24.390;2023-08-31T05:34:03;14.75;;;9.90;;
32242;SDS011;18731;42.830;24.390;2023-08-31T05:36:29;14.88;;;10.05;;
32242;SDS011;18731;42.830;24.390;2023-08-31T05:38:54;15.73;;;10.60;;
32242;SDS011;18731;42.830;24.390;2023-08-31T05:41:20;13.82;;;9.23;;
32242;SDS011;18731;42.830;24.390;2023-08-31T05:43:46;12.75;;;10.18;;
32242;SDS011;18731;42.830;24.390;2023-08-31T05:46:11;14.93;;;10.27;;
32242;SDS011;18731;42.830;24.390;2023-08-31T05:48:37;15.52;;;9.63;;
32242;SDS011;18731;42.830;24.390;2023-08-31T05:51:02;15.57;;;9.63;;
32242;SDS011;18731;42.830;24.390;2023-08-31T05:53:31;17.75;;;9.35;;
32242;SDS011;18731;42.830;24.390;2023-08-31T05:55:57;13.45;;;9.60;;
32242;SDS011;18731;42.830;24.390;2023-08-31T05:58:33;19.08;;;9.18;;
32242;SDS011;18731;42.830;24.390;2023-08-31T06:01:00;11.13;;;9.63;;
32242;SDS011;18731;42.830;24.390;2023-08-31T06:03:26;12.15;;;9.32;;
32242;SDS011;18731;42.830;24.390;2023-08-31T06:05:53;14.68;;;9.65;;
32242;SDS011;18731;42.830;24.390;2023-08-31T06:08:18;12.55;;;10.15;;
32242;SDS011;18731;42.830;24.390;2023-08-31T06:10:44;15.98;;;10.20;;
32242;SDS011;18731;42.830;24.390;2023-08-31T06:13:09;13.85;;;9.18;;
32242;SDS011;18731;42.830;24.390;2023-08-31T06:15:35;13.10;;;8.75;;
32242;SDS011;18731;42.830;24.390;2023-08-31T06:18:00;15.93;;;9.27;;
32242;SDS011;18731;42.830;24.390;2023-08-31T06:20:26;11.95;;;8.68;;
32242;SDS011;18731;42.830;24.390;2023-08-31T06:22:52;16.05;;;8.95;;
32242;SDS011;18731;42.830;24.390;2023-08-31T06:25:17;13.23;;;10.25;;
32242;SDS011;18731;42.830;24.390;2023-08-31T06:27:44;19.95;;;9.10;;
32242;SDS011;18731;42.830;24.390;2023-08-31T06:30:10;11.43;;;8.18;;
32242;SDS011;18731;42.830;24.390;2023-08-31T06:32:42;15.20;;;7.40;;
32242;SDS011;18731;42.830;24.390;2023-08-31T06:35:09;13.20;;;7.10;;
32242;SDS011;18731;42.830;24.390;2023-08-31T06:37:40;11.73;;;8.45;;
32242;SDS011;18731;42.830;24.390;2023-08-31T06:40:06;11.55;;;7.35;;
32242;SDS011;18731;42.830;24.390;2023-08-31T06:42:33;10.20;;;6.40;;
32242;SDS011;18731;42.830;24.390;2023-08-31T06:45:00;9.90;;;6.80;;
32242;SDS011;18731;42.830;24.390;2023-08-31T06:47:26;12.38;;;6.32;;
32242;SDS011;18731;42.830;24.390;2023-08-31T06:49:51;12.27;;;7.00;;
32242;SDS011;18731;42.830;24.390;2023-08-31T06:52:18;9.10;;;6.43;;
32242;SDS011;18731;42.830;24.390;2023-08-31T06:54:43;9.25;;;6.57;;
32242;SDS011;18731;42.830;24.390;2023-08-31T06:57:09;9.13;;;6.32;;
32242;SDS011;18731;42.830;24.390;2023-08-31T06:59:34;12.80;;;7.95;;
32242;SDS011;18731;42.830;24.390;2023-08-31T07:02:00;10.25;;;6.60;;
32242;SDS011;18731;42.830;24.390;2023-08-31T07:04:28;8.13;;;5.45;;
32242;SDS011;18731;42.830;24.390;2023-08-31T07:06:55;12.15;;;5.35;;
32242;SDS011;18731;42.830;24.390;2023-08-31T07:09:21;17.08;;;4.78;;
32242;SDS011;18731;42.830;24.390;2023-08-31T07:11:46;7.47;;;3.90;;
32242;SDS011;18731;42.830;24.390;2023-08-31T07:14:12;5.63;;;3.30;;
32242;SDS011;18731;42.830;24.390;2023-08-31T07:16:37;9.52;;;3.92;;
32242;SDS011;18731;42.830;24.390;2023-08-31T07:19:03;6.40;;;2.80;;
32242;SDS011;18731;42.830;24.390;2023-08-31T07:21:29;6.82;;;3.33;;
32242;SDS011;18731;42.830;24.390;2023-08-31T07:23:54;5.03;;;3.20;;
32242;SDS011;18731;42.830;24.390;2023-08-31T07:26:20;8.70;;;3.60;;
32242;SDS011;18731;42.830;24.390;2023-08-31T07:28:46;12.57;;;3.70;;
32242;SDS011;18731;42.830;24.390;2023-08-31T07:31:12;6.25;;;3.90;;
32242;SDS011;18731;42.830;24.390;2023-08-31T07:33:38;7.40;;;3.80;;
32242;SDS011;18731;42.830;24.390;2023-08-31T07:36:04;8.25;;;3.90;;
32242;SDS011;18731;42.830;24.390;2023-08-31T07:38:31;6.78;;;3.50;;
32242;SDS011;18731;42.830;24.390;2023-08-31T07:40:58;6.38;;;3.05;;
32242;SDS011;18731;42.830;24.390;2023-08-31T07:43:24;5.95;;;3.53;;
32242;SDS011;18731;42.830;24.390;2023-08-31T07:45:50;8.38;;;2.97;;
32242;SDS011;18731;42.830;24.390;2023-08-31T07:48:17;7.75;;;3.40;;
32242;SDS011;18731;42.830;24.390;2023-08-31T07:50:43;8.77;;;3.10;;
32242;SDS011;18731;42.830;24.390;2023-08-31T07:53:08;7.18;;;3.10;;
32242;SDS011;18731;42.830;24.390;2023-08-31T07:55:34;10.85;;;3.10;;
32242;SDS011;18731;42.830;24.390;2023-08-31T07:58:01;5.25;;;2.97;;
32242;SDS011;18731;42.830;24.390;2023-08-31T08:00:27;8.40;;;3.30;;
32242;SDS011;18731;42.830;24.390;2023-08-31T08:02:52;4.85;;;2.70;;
32242;SDS011;18731;42.830;24.390;2023-08-31T08:05:18;7.45;;;2.75;;
32242;SDS011;18731;42.830;24.390;2023-08-31T08:07:44;7.13;;;3.33;;
32242;SDS011;18731;42.830;24.390;2023-08-31T08:10:11;7.15;;;2.80;;
32242;SDS011;18731;42.830;24.390;2023-08-31T08:12:40;6.25;;;2.90;;
32242;SDS011;18731;42.830;24.390;2023-08-31T08:15:11;4.90;;;2.50;;
32242;SDS011;18731;42.830;24.390;2023-08-31T08:17:38;8.68;;;2.83;;
32242;SDS011;18731;42.830;24.390;2023-08-31T08:20:04;3.72;;;2.30;;
32242;SDS011;18731;42.830;24.390;2023-08-31T08:22:31;9.32;;;2.67;;
32242;SDS011;18731;42.830;24.390;2023-08-31T08:24:57;8.65;;;3.00;;
32242;SDS011;18731;42.830;24.390;2023-08-31T08:27:23;4.88;;;2.72;;
32242;SDS011;18731;42.830;24.390;2023-08-31T08:29:48;4.55;;;2.60;;
32242;SDS011;18731;42.830;24.390;2023-08-31T08:32:14;6.13;;;3.00;;
32242;SDS011;18731;42.830;24.390;2023-08-31T08:34:40;7.32;;;2.55;;
32242;SDS011;18731;42.830;24.390;2023-08-31T08:37:06;10.52;;;2.80;;
32242;SDS011;18731;42.830;24.390;2023-08-31T08:39:31;4.85;;;2.30;;
32242;SDS011;18731;42.830;24.390;2023-08-31T08:42:00;4.65;;;2.47;;
32242;SDS011;18731;42.830;24.390;2023-08-31T08:44:31;4.88;;;2.55;;
32242;SDS011;18731;42.830;24.390;2023-08-31T08:46:58;5.55;;;2.35;;
32242;SDS011;18731;42.830;24.390;2023-08-31T08:49:26;4.93;;;2.20;;
32242;SDS011;18731;42.830;24.390;2023-08-31T08:51:51;16.73;;;2.60;;
32242;SDS011;18731;42.830;24.390;2023-08-31T08:54:18;5.30;;;2.20;;
32242;SDS011;18731;42.830;24.390;2023-08-31T08:56:45;6.13;;;2.65;;
32242;SDS011;18731;42.830;24.390;2023-08-31T08:59:10;6.47;;;2.70;;
32242;SDS011;18731;42.830;24.390;2023-08-31T09:01:38;8.35;;;2.80;;
32242;SDS011;18731;42.830;24.390;2023-08-31T09:04:04;5.75;;;2.50;;
32242;SDS011;18731;42.830;24.390;2023-08-31T09:06:30;5.30;;;2.45;;
32242;SDS011;18731;42.830;24.390;2023-08-31T09:08:56;5.35;;;2.30;;
32242;SDS011;18731;42.830;24.390;2023-08-31T09:11:22;7.65;;;2.40;;
32242;SDS011;18731;42.830;24.390;2023-08-31T09:13:48;3.85;;;2.30;;
32242;SDS011;18731;42.830;24.390;2023-08-31T09:16:27;4.20;;;2.35;;
32242;SDS011;18731;42.830;24.390;2023-08-31T09:18:54;5.35;;;2.38;;
32242;SDS011;18731;42.830;24.390;2023-08-31T09:21:36;5.55;;;2.70;;
32242;SDS011;18731;42.830;24.390;2023-08-31T09:24:04;7.60;;;2.45;;
32242;SDS011;18731;42.830;24.390;2023-08-31T09:26:39;6.45;;;2.63;;
32242;SDS011;18731;42.830;24.390;2023-08-31T09:29:08;8.35;;;2.60;;
32242;SDS011;18731;42.830;24.390;2023-08-31T09:31:34;8.30;;;2.65;;
32242;SDS011;18731;42.830;24.390;2023-08-31T09:33:59;9.68;;;3.67;;
32242;SDS011;18731;42.830;24.390;2023-08-31T09:36:26;5.13;;;2.10;;
32242;SDS011;18731;42.830;24.390;2023-08-31T09:38:56;5.38;;;2.85;;
32242;SDS011;18731;42.830;24.390;2023-08-31T09:41:23;7.13;;;2.30;;
32242;SDS011;18731;42.830;24.390;2023-08-31T09:43:48;5.22;;;2.40;;
32242;SDS011;18731;42.830;24.390;2023-08-31T09:46:14;5.65;;;2.60;;
32242;SDS011;18731;42.830;24.390;2023-08-31T09:48:41;6.35;;;2.92;;
32242;SDS011;18731;42.830;24.390;2023-08-31T09:51:08;4.78;;;2.42;;
32242;SDS011;18731;42.830;24.390;2023-08-31T09:53:35;7.45;;;2.60;;
32242;SDS011;18731;42.830;24.390;2023-08-31T09:56:02;11.80;;;3.03;;
32242;SDS011;18731;42.830;24.390;2023-08-31T09:58:30;6.35;;;3.08;;
32242;SDS011;18731;42.830;24.390;2023-08-31T10:00:57;51.55;;;29.90;;
32242;SDS011;18731;42.830;24.390;2023-08-31T10:03:24;7.68;;;3.63;;
32242;SDS011;18731;42.830;24.390;2023-08-31T10:05:52;9.20;;;4.88;;
32242;SDS011;18731;42.830;24.390;2023-08-31T10:08:19;8.75;;;5.70;;
32242;SDS011;18731;42.830;24.390;2023-08-31T10:10:45;9.45;;;4.07;;
32242;SDS011;18731;42.830;24.390;2023-08-31T10:13:11;6.03;;;2.88;;
32242;SDS011;18731;42.830;24.390;2023-08-31T10:15:38;11.40;;;3.13;;
32242;SDS011;18731;42.830;24.390;2023-08-31T10:18:05;26.83;;;14.45;;
32242;SDS011;18731;42.830;24.390;2023-08-31T10:20:32;5.78;;;3.03;;
32242;SDS011;18731;42.830;24.390;2023-08-31T10:23:02;7.32;;;2.97;;
32242;SDS011;18731;42.830;24.390;2023-08-31T10:28:20;5.35;;;3.00;;
32242;SDS011;18731;42.830;24.390;2023-08-31T10:31:03;6.63;;;3.17;;
32242;SDS011;18731;42.830;24.390;2023-08-31T10:33:34;7.28;;;3.50;;
32242;SDS011;18731;42.830;24.390;2023-08-31T10:36:13;8.27;;;3.20;;
32242;SDS011;18731;42.830;24.390;2023-08-31T10:38:40;5.20;;;3.30;;
32242;SDS011;18731;42.830;24.390;2023-08-31T10:46:17;9.55;;;3.70;;
32242;SDS011;18731;42.830;24.390;2023-08-31T10:48:52;7.47;;;4.50;;
32242;SDS011;18731;42.830;24.390;2023-08-31T10:51:21;7.97;;;3.53;;
32242;SDS011;18731;42.830;24.390;2023-08-31T10:53:50;9.50;;;4.50;;
32242;SDS011;18731;42.830;24.390;2023-08-31T10:56:17;6.20;;;3.95;;
32242;SDS011;18731;42.830;24.390;2023-08-31T10:58:54;9.80;;;3.70;;
32242;SDS011;18731;42.830;24.390;2023-08-31T11:04:22;8.77;;;5.25;;
32242;SDS011;18731;42.830;24.390;2023-08-31T11:07:13;6.15;;;3.50;;
32242;SDS011;18731;42.830;24.390;2023-08-31T11:09:42;8.85;;;3.40;;
32242;SDS011;18731;42.830;24.390;2023-08-31T11:12:08;5.93;;;3.78;;
32242;SDS011;18731;42.830;24.390;2023-08-31T11:14:34;7.68;;;3.83;;
32242;SDS011;18731;42.830;24.390;2023-08-31T11:17:00;9.95;;;4.35;;
32242;SDS011;18731;42.830;24.390;2023-08-31T11:19:26;6.43;;;3.25;;
32242;SDS011;18731;42.830;24.390;2023-08-31T11:21:53;5.88;;;3.63;;
32242;SDS011;18731;42.830;24.390;2023-08-31T11:24:19;5.93;;;3.63;;
32242;SDS011;18731;42.830;24.390;2023-08-31T11:26:50;8.02;;;3.90;;
32242;SDS011;18731;42.830;24.390;2023-08-31T11:29:16;7.18;;;4.03;;
32242;SDS011;18731;42.830;24.390;2023-08-31T11:31:42;5.72;;;3.70;;
32242;SDS011;18731;42.830;24.390;2023-08-31T11:34:15;5.32;;;3.42;;
32242;SDS011;18731;42.830;24.390;2023-08-31T11:36:42;5.93;;;3.40;;
32242;SDS011;18731;42.830;24.390;2023-08-31T11:39:09;6.13;;;3.40;;
32242;SDS011;18731;42.830;24.390;2023-08-31T11:41:36;6.78;;;3.83;;
32242;SDS011;18731;42.830;24.390;2023-08-31T11:44:10;5.75;;;3.35;;
32242;SDS011;18731;42.830;24.390;2023-08-31T11:46:37;7.82;;;3.28;;
32242;SDS011;18731;42.830;24.390;2023-08-31T11:49:05;16.52;;;4.38;;
32242;SDS011;18731;42.830;24.390;2023-08-31T11:51:32;16.83;;;5.63;;
32242;SDS011;18731;42.830;24.390;2023-08-31T11:54:01;37.65;;;4.20;;
32242;SDS011;18731;42.830;24.390;2023-08-31T11:56:37;90.43;;;5.55;;
32242;SDS011;18731;42.830;24.390;2023-08-31T11:59:16;59.67;;;4.72;;
32242;SDS011;18731;42.830;24.390;2023-08-31T12:01:43;48.15;;;5.47;;
32242;SDS011;18731;42.830;24.390;2023-08-31T12:04:11;18.77;;;4.30;;
32242;SDS011;18731;42.830;24.390;2023-08-31T12:06:38;6.50;;;3.30;;
32242;SDS011;18731;42.830;24.390;2023-08-31T12:09:06;9.18;;;3.08;;
32242;SDS011;18731;42.830;24.390;2023-08-31T12:11:32;4.75;;;3.15;;
32242;SDS011;18731;42.830;24.390;2023-08-31T12:14:01;6.15;;;3.40;;
32242;SDS011;18731;42.830;24.390;2023-08-31T12:16:34;10.35;;;3.95;;
32242;SDS011;18731;42.830;24.390;2023-08-31T12:19:03;4.57;;;3.35;;
32242;SDS011;18731;42.830;24.390;2023-08-31T12:21:31;7.80;;;3.70;;
32242;SDS011;18731;42.830;24.390;2023-08-31T12:23:57;7.05;;;3.35;;
32242;SDS011;18731;42.830;24.390;2023-08-31T12:26:24;5.68;;;3.53;;
32242;SDS011;18731;42.830;24.390;2023-08-31T12:28:50;6.65;;;3.65;;
32242;SDS011;18731;42.830;24.390;2023-08-31T12:31:15;6.38;;;3.80;;
32242;SDS011;18731;42.830;24.390;2023-08-31T12:33:41;4.90;;;3.67;;
32242;SDS011;18731;42.830;24.390;2023-08-31T12:36:07;5.55;;;3.63;;
32242;SDS011;18731;42.830;24.390;2023-08-31T12:38:32;8.57;;;3.70;;
32242;SDS011;18731;42.830;24.390;2023-08-31T12:40:58;6.45;;;3.60;;
32242;SDS011;18731;42.830;24.390;2023-08-31T12:43:24;7.13;;;3.20;;
32242;SDS011;18731;42.830;24.390;2023-08-31T12:45:50;4.45;;;3.15;;
32242;SDS011;18731;42.830;24.390;2023-08-31T12:48:15;7.20;;;3.20;;
32242;SDS011;18731;42.830;24.390;2023-08-31T12:50:41;7.53;;;3.22;;
32242;SDS011;18731;42.830;24.390;2023-08-31T12:53:07;9.65;;;3.40;;
32242;SDS011;18731;42.830;24.390;2023-08-31T12:55:32;10.70;;;3.00;;
32242;SDS011;18731;42.830;24.390;2023-08-31T12:57:58;9.52;;;2.97;;
32242;SDS011;18731;42.830;24.390;2023-08-31T13:00:23;5.25;;;2.88;;
32242;SDS011;18731;42.830;24.390;2023-08-31T13:02:49;12.15;;;3.25;;
32242;SDS011;18731;42.830;24.390;2023-08-31T13:05:16;7.93;;;3.13;;
32242;SDS011;18731;42.830;24.390;2023-08-31T13:07:41;9.40;;;3.00;;
32242;SDS011;18731;42.830;24.390;2023-08-31T13:10:07;10.95;;;3.70;;
32242;SDS011;18731;42.830;24.390;2023-08-31T13:12:33;6.25;;;2.92;;
32242;SDS011;18731;42.830;24.390;2023-08-31T13:14:59;5.90;;;3.22;;
32242;SDS011;18731;42.830;24.390;2023-08-31T13:17:26;8.25;;;3.45;;
32242;SDS011;18731;42.830;24.390;2023-08-31T13:19:56;4.80;;;2.90;;
32242;SDS011;18731;42.830;24.390;2023-08-31T13:22:25;4.85;;;3.00;;
32242;SDS011;18731;42.830;24.390;2023-08-31T13:24:51;6.28;;;2.83;;
32242;SDS011;18731;42.830;24.390;2023-08-31T13:27:17;6.47;;;2.88;;
32242;SDS011;18731;42.830;24.390;2023-08-31T13:29:43;6.47;;;3.30;;
32242;SDS011;18731;42.830;24.390;2023-08-31T13:32:09;6.40;;;3.10;;
32242;SDS011;18731;42.830;24.390;2023-08-31T13:34:35;7.03;;;3.08;;
32242;SDS011;18731;42.830;24.390;2023-08-31T13:37:04;6.88;;;3.22;;
32242;SDS011;18731;42.830;24.390;2023-08-31T13:39:30;6.85;;;3.58;;
32242;SDS011;18731;42.830;24.390;2023-08-31T13:41:56;8.38;;;3.05;;
32242;SDS011;18731;42.830;24.390;2023-08-31T13:44:22;8.90;;;2.90;;
32242;SDS011;18731;42.830;24.390;2023-08-31T13:46:48;9.45;;;2.88;;
32242;SDS011;18731;42.830;24.390;2023-08-31T13:49:14;7.72;;;3.38;;
32242;SDS011;18731;42.830;24.390;2023-08-31T13:51:40;7.10;;;2.92;;
32242;SDS011;18731;42.830;24.390;2023-08-31T13:54:07;5.32;;;2.90;;
32242;SDS011;18731;42.830;24.390;2023-08-31T13:56:33;4.75;;;2.70;;
32242;SDS011;18731;42.830;24.390;2023-08-31T13:58:59;5.68;;;2.80;;
32242;SDS011;18731;42.830;24.390;2023-08-31T14:01:25;11.75;;;3.55;;
32242;SDS011;18731;42.830;24.390;2023-08-31T14:03:51;6.43;;;2.63;;
32242;SDS011;18731;42.830;24.390;2023-08-31T14:06:16;3.85;;;2.72;;
32242;SDS011;18731;42.830;24.390;2023-08-31T14:08:42;4.70;;;2.97;;
32242;SDS011;18731;42.830;24.390;2023-08-31T14:11:08;5.95;;;3.15;;
32242;SDS011;18731;42.830;24.390;2023-08-31T14:13:33;5.72;;;2.92;;
32242;SDS011;18731;42.830;24.390;2023-08-31T14:15:59;8.77;;;2.90;;
32242;SDS011;18731;42.830;24.390;2023-08-31T14:18:28;8.75;;;3.45;;
32242;SDS011;18731;42.830;24.390;2023-08-31T14:20:55;6.93;;;3.20;;
32242;SDS011;18731;42.830;24.390;2023-08-31T14:23:21;6.45;;;2.97;;
32242;SDS011;18731;42.830;24.390;2023-08-31T14:25:47;7.68;;;3.35;;
32242;SDS011;18731;42.830;24.390;2023-08-31T14:28:12;8.95;;;3.22;;
32242;SDS011;18731;42.830;24.390;2023-08-31T14:30:38;4.47;;;2.83;;
32242;SDS011;18731;42.830;24.390;2023-08-31T14:33:04;5.97;;;2.58;;
32242;SDS011;18731;42.830;24.390;2023-08-31T14:35:30;6.35;;;3.08;;
32242;SDS011;18731;42.830;24.390;2023-08-31T14:37:56;9.52;;;3.63;;
32242;SDS011;18731;42.830;24.390;2023-08-31T14:40:23;6.72;;;2.83;;
32242;SDS011;18731;42.830;24.390;2023-08-31T14:42:48;7.38;;;3.13;;
32242;SDS011;18731;42.830;24.390;2023-08-31T14:45:14;7.82;;;2.88;;
32242;SDS011;18731;42.830;24.390;2023-08-31T14:47:39;4.10;;;2.80;;
32242;SDS011;18731;42.830;24.390;2023-08-31T14:50:05;7.90;;;2.80;;
32242;SDS011;18731;42.830;24.390;2023-08-31T14:52:32;8.00;;;3.00;;
32242;SDS011;18731;42.830;24.390;2023-08-31T14:54:57;8.07;;;3.13;;
32242;SDS011;18731;42.830;24.390;2023-08-31T14:57:23;9.05;;;2.85;;
32242;SDS011;18731;42.830;24.390;2023-08-31T14:59:49;6.80;;;2.70;;
32242;SDS011;18731;42.830;24.390;2023-08-31T15:02:18;8.45;;;2.90;;
32242;SDS011;18731;42.830;24.390;2023-08-31T15:04:47;5.80;;;2.50;;
32242;SDS011;18731;42.830;24.390;2023-08-31T15:07:15;7.93;;;3.05;;
32242;SDS011;18731;42.830;24.390;2023-08-31T15:09:42;7.10;;;3.55;;
32242;SDS011;18731;42.830;24.390;2023-08-31T15:12:07;4.85;;;2.72;;
32242;SDS011;18731;42.830;24.390;2023-08-31T15:14:33;4.55;;;2.80;;
32242;SDS011;18731;42.830;24.390;2023-08-31T15:16:59;4.40;;;2.90;;
32242;SDS011;18731;42.830;24.390;2023-08-31T15:19:24;6.28;;;2.30;;
32242;SDS011;18731;42.830;24.390;2023-08-31T15:21:50;7.32;;;2.55;;
32242;SDS011;18731;42.830;24.390;2023-08-31T15:24:15;9.45;;;2.72;;
32242;SDS011;18731;42.830;24.390;2023-08-31T15:26:41;5.85;;;2.47;;
32242;SDS011;18731;42.830;24.390;2023-08-31T15:29:08;4.18;;;2.47;;
32242;SDS011;18731;42.830;24.390;2023-08-31T15:31:34;7.65;;;3.17;;
32242;SDS011;18731;42.830;24.390;2023-08-31T15:34:00;5.80;;;2.67;;
32242;SDS011;18731;42.830;24.390;2023-08-31T15:36:25;6.28;;;3.00;;
32242;SDS011;18731;42.830;24.390;2023-08-31T15:38:51;5.22;;;2.65;;
32242;SDS011;18731;42.830;24.390;2023-08-31T15:41:16;10.70;;;2.92;;
32242;SDS011;18731;42.830;24.390;2023-08-31T15:43:42;9.07;;;3.10;;
32242;SDS011;18731;42.830;24.390;2023-08-31T15:46:07;6.07;;;3.03;;
32242;SDS011;18731;42.830;24.390;2023-08-31T15:48:33;7.30;;;2.75;;
32242;SDS011;18731;42.830;24.390;2023-08-31T15:50:59;6.70;;;2.47;;
32242;SDS011;18731;42.830;24.390;2023-08-31T15:53:25;9.15;;;2.88;;
32242;SDS011;18731;42.830;24.390;2023-08-31T15:55:52;9.52;;;3.35;;
32242;SDS011;18731;42.830;24.390;2023-08-31T15:58:18;7.38;;;2.85;;
32242;SDS011;18731;42.830;24.390;2023-08-31T16:00:44;12.82;;;3.10;;
32242;SDS011;18731;42.830;24.390;2023-08-31T16:03:09;7.38;;;2.83;;
32242;SDS011;18731;42.830;24.390;2023-08-31T16:05:35;3.67;;;2.35;;
32242;SDS011;18731;42.830;24.390;2023-08-31T16:08:03;7.57;;;2.70;;
32242;SDS011;18731;42.830;24.390;2023-08-31T16:10:29;7.88;;;2.88;;
32242;SDS011;18731;42.830;24.390;2023-08-31T16:12:55;6.22;;;2.60;;
32242;SDS011;18731;42.830;24.390;2023-08-31T16:15:23;7.78;;;3.00;;
32242;SDS011;18731;42.830;24.390;2023-08-31T16:17:51;10.93;;;2.75;;
32242;SDS011;18731;42.830;24.390;2023-08-31T16:20:17;7.35;;;2.70;;
32242;SDS011;18731;42.830;24.390;2023-08-31T16:22:44;5.97;;;2.63;;
32242;SDS011;18731;42.830;24.390;2023-08-31T16:25:10;8.70;;;3.10;;
32242;SDS011;18731;42.830;24.390;2023-08-31T16:27:37;7.03;;;3.13;;
32242;SDS011;18731;42.830;24.390;2023-08-31T16:30:05;15.43;;;3.10;;
32242;SDS011;18731;42.830;24.390;2023-08-31T16:32:31;10.13;;;3.38;;
32242;SDS011;18731;42.830;24.390;2023-08-31T16:34:57;6.40;;;2.70;;
32242;SDS011;18731;42.830;24.390;2023-08-31T16:37:23;6.80;;;2.53;;
32242;SDS011;18731;42.830;24.390;2023-08-31T16:39:52;6.60;;;2.78;;
32242;SDS011;18731;42.830;24.390;2023-08-31T16:42:17;6.30;;;2.97;;
32242;SDS011;18731;42.830;24.390;2023-08-31T16:44:43;6.50;;;2.53;;
32242;SDS011;18731;42.830;24.390;2023-08-31T16:47:09;5.05;;;3.03;;
32242;SDS011;18731;42.830;24.390;2023-08-31T16:49:35;6.82;;;2.60;;
32242;SDS011;18731;42.830;24.390;2023-08-31T16:52:02;9.80;;;2.65;;
32242;SDS011;18731;42.830;24.390;2023-08-31T16:54:29;8.88;;;2.90;;
32242;SDS011;18731;42.830;24.390;2023-08-31T16:56:55;5.95;;;2.63;;
32242;SDS011;18731;42.830;24.390;2023-08-31T16:59:20;5.93;;;2.58;;
32242;SDS011;18731;42.830;24.390;2023-08-31T17:01:46;5.05;;;2.58;;
32242;SDS011;18731;42.830;24.390;2023-08-31T17:04:12;6.70;;;2.60;;
32242;SDS011;18731;42.830;24.390;2023-08-31T17:06:38;6.68;;;2.92;;
32242;SDS011;18731;42.830;24.390;2023-08-31T17:09:03;6.45;;;2.78;;
32242;SDS011;18731;42.830;24.390;2023-08-31T17:11:32;7.53;;;3.08;;
32242;SDS011;18731;42.830;24.390;2023-08-31T17:13:59;4.10;;;2.05;;
32242;SDS011;18731;42.830;24.390;2023-08-31T17:16:29;5.90;;;2.55;;
32242;SDS011;18731;42.830;24.390;2023-08-31T17:18:55;5.78;;;2.58;;
32242;SDS011;18731;42.830;24.390;2023-08-31T17:21:21;4.72;;;2.30;;
32242;SDS011;18731;42.830;24.390;2023-08-31T17:23:46;5.70;;;2.58;;
32242;SDS011;18731;42.830;24.390;2023-08-31T17:26:22;8.40;;;2.72;;
32242;SDS011;18731;42.830;24.390;2023-08-31T17:28:49;4.68;;;2.47;;
32242;SDS011;18731;42.830;24.390;2023-08-31T17:31:15;8.10;;;3.22;;
32242;SDS011;18731;42.830;24.390;2023-08-31T17:33:41;6.40;;;2.95;;
32242;SDS011;18731;42.830;24.390;2023-08-31T17:36:08;4.78;;;2.85;;